createdAt,value
2023-01-05T00:02:52.267Z,100001.13
2023-01-05T00:07:57.569Z,99988.03
2023-01-05T00:13:01.193Z,99996.81
2023-01-05T00:18:04.921Z,99984.16
2023-01-05T00:23:10.508Z,100011.72
2023-01-05T00:28:14.178Z,100010.41
2023-01-05T00:33:18.694Z,100007.72
2023-01-05T00:38:23.998Z,100016.38
2023-01-05T00:43:27.670Z,99954.16
2023-01-05T00:48:31.326Z,99995.81
2023-01-05T00:53:36.690Z,99950.41
2023-01-05T00:58:40.325Z,99974.69
2023-01-05T01:03:44.031Z,99987.63
2023-01-05T01:08:49.421Z,100029.25
2023-01-05T01:13:53.062Z,99992.44
2023-01-05T01:18:59.662Z,100034.38
2023-01-05T01:24:08.673Z,99957.06
2023-01-05T01:29:12.563Z,99959.13
2023-01-05T01:34:16.351Z,99920.50
2023-01-05T01:39:21.708Z,99878.50
2023-01-05T01:44:50.641Z,99883.75
2023-01-05T01:49:56.499Z,99878.31
2023-01-05T01:55:04.394Z,99839.31
2023-01-05T02:00:10.770Z,99861.97
2023-01-05T02:05:17.140Z,99768.41
2023-01-05T02:10:45.658Z,99794.53
2023-01-05T02:15:56.213Z,99853.06
2023-01-05T02:21:19.687Z,99831.91
2023-01-05T02:27:12.984Z,99842.09
2023-01-05T02:32:23.471Z,99825.25
2023-01-05T02:37:33.609Z,99841.47
2023-01-05T02:42:39.859Z,99854.19
2023-01-05T02:47:46.419Z,99863.03
2023-01-05T02:52:56.613Z,99873.50
2023-01-05T02:58:04.693Z,99841.31
2023-01-05T03:03:16.306Z,99838.66
2023-01-05T03:08:25.085Z,99862.16
2023-01-05T03:13:35.065Z,99861.03
2023-01-05T03:18:59.679Z,99890.50
2023-01-05T03:24:03.381Z,99877.28
2023-01-05T03:29:07.093Z,99884.09
2023-01-05T03:34:18.227Z,99884.91
2023-01-05T03:39:26.961Z,99912.81
2023-01-05T03:44:30.594Z,99910.31
2023-01-05T03:49:36.301Z,99902.22
2023-01-05T03:54:39.959Z,99908.19
2023-01-05T03:59:43.632Z,99893.44
2023-01-05T04:04:48.994Z,99925.91
2023-01-05T04:09:52.721Z,99937.00
2023-01-05T04:47:38.769Z,100040.28
2023-01-05T04:52:42.439Z,100036.03
2023-01-05T04:57:46.256Z,100016.91
2023-01-05T05:02:51.751Z,100015.31
2023-01-05T05:07:55.435Z,100019.44
2023-01-05T05:12:59.064Z,99981.28
2023-01-05T05:18:08.927Z,100054.34
2023-01-05T05:23:13.249Z,100022.59
2023-01-05T05:28:16.924Z,100013.25
2023-01-05T05:33:25.139Z,100006.41
2023-01-05T05:38:28.789Z,100003.19
2023-01-05T05:43:32.488Z,99975.19
2023-01-05T05:48:37.875Z,99993.22
2023-01-05T05:53:42.590Z,100021.63
2023-01-05T15:34:24.479Z,100447.31
2023-01-05T18:19:39.605Z,100754.66
2023-01-05T18:24:43.623Z,100754.41
2023-01-05T18:29:47.243Z,100751.03
2023-01-05T18:34:52.530Z,100757.44
2023-01-05T18:39:56.172Z,100771.06
2023-01-05T18:45:04.909Z,100781.69
2023-01-05T18:50:20.435Z,100787.88
2023-01-05T18:55:24.080Z,100794.50
2023-01-05T19:00:27.819Z,100812.28
2023-01-05T19:05:33.191Z,100805.75
2023-01-05T19:10:37.377Z,100811.47
2023-01-05T19:15:41.024Z,100818.31
2023-01-05T19:20:46.346Z,100815.16
2023-01-05T19:25:49.993Z,100822.66
2023-01-05T19:30:53.665Z,100850.31
2023-01-05T19:36:04.318Z,100841.66
2023-01-05T19:41:11.110Z,100837.66
2023-01-05T19:46:15.907Z,100829.44
2023-01-05T19:51:22.541Z,100820.06
2023-01-05T19:56:27.891Z,100822.88
2023-01-05T20:01:34.673Z,100825.72
2023-01-05T20:06:41.946Z,100829.03
2023-01-05T20:11:47.807Z,100834.78
2023-01-05T20:16:52.892Z,100832.13
2023-01-05T20:22:00.191Z,100839.59
2023-01-05T20:27:06.453Z,100831.31
2023-01-05T20:32:12.181Z,100851.94
2023-01-05T20:37:17.482Z,100872.56
2023-01-05T20:42:21.828Z,100875.00
2023-01-05T20:47:25.501Z,100881.50
2023-01-05T20:52:31.351Z,100892.56
2023-01-05T20:57:35.004Z,100896.84
2023-01-05T21:02:38.737Z,100900.84
2023-01-05T21:07:44.834Z,100901.50
2023-01-05T21:12:48.470Z,100909.09
2023-01-05T21:17:52.116Z,100917.69
2023-01-05T21:22:57.511Z,100925.28
2023-01-05T21:28:01.162Z,100932.28
2023-01-05T21:33:04.920Z,100923.72
2023-01-05T21:38:10.251Z,100926.91
2023-01-05T21:43:13.937Z,100935.94
2023-01-05T21:48:17.589Z,100948.91
2023-01-05T21:53:22.919Z,100947.00
2023-01-05T21:58:26.635Z,100954.63
2023-01-05T22:03:30.755Z,100953.31
2023-01-05T22:08:36.179Z,100967.06
2023-01-05T22:13:40.627Z,100969.25
2023-01-05T22:18:44.243Z,100971.78
2023-01-05T22:23:49.584Z,100988.31
2023-01-05T22:28:53.904Z,100991.03
2023-01-05T22:33:58.749Z,100997.63
2023-01-05T22:39:04.033Z,100999.66
2023-01-05T22:44:08.237Z,101008.84
2023-01-05T22:49:14.589Z,101018.06
2023-01-05T22:54:19.980Z,101032.19
2023-01-05T22:59:23.653Z,101044.41
2023-01-05T23:04:27.359Z,101068.03
2023-01-05T23:09:32.664Z,101077.41
2023-01-05T23:14:36.299Z,101083.88
2023-01-05T23:19:40.824Z,101076.50
2023-01-05T23:24:46.265Z,101090.91
2023-01-05T23:29:49.878Z,101103.47
2023-01-05T23:34:53.511Z,101111.72
2023-01-05T23:39:58.783Z,101116.78
2023-01-05T23:45:02.432Z,101122.38
2023-01-05T23:50:06.976Z,101126.06
2023-01-05T23:55:14.157Z,101146.88
